createdAt,value
2023-09-08T00:02:05.204Z,77.85
2023-09-08T00:04:31.692Z,74.57
2023-09-08T00:06:58.160Z,79.78
2023-09-08T00:09:24.592Z,82.82
2023-09-08T00:11:50.982Z,85.32
2023-09-08T00:14:17.407Z,82.03
2023-09-08T00:16:43.947Z,92.73
2023-09-08T00:19:11.216Z,85.93
2023-09-08T00:21:38.104Z,87.13
2023-09-08T00:24:05.252Z,95.97
2023-09-08T00:26:32.243Z,106.18
2023-09-08T00:28:58.723Z,82.97
2023-09-08T00:31:25.246Z,87.00
2023-09-08T00:33:51.686Z,90.70
2023-09-08T00:36:18.111Z,99.75
2023-09-08T00:38:44.564Z,117.75
2023-09-08T00:41:11.030Z,109.50
2023-09-08T00:43:37.429Z,133.50
2023-09-08T00:46:04.330Z,125.80
2023-09-08T00:48:30.954Z,105.45
2023-09-08T00:50:58.158Z,93.05
2023-09-08T00:53:24.834Z,105.47
2023-09-08T00:55:51.759Z,84.05
2023-09-08T00:58:18.289Z,68.35
2023-09-08T01:00:44.784Z,72.15
2023-09-08T01:03:12.472Z,84.38
2023-09-08T01:05:39.263Z,85.20
2023-09-08T01:08:06.525Z,125.35
2023-09-08T01:10:33.112Z,152.70
2023-09-08T01:12:59.490Z,135.73
2023-09-08T01:15:25.911Z,171.50
2023-09-08T01:17:52.352Z,157.40
2023-09-08T01:20:20.087Z,140.65
2023-09-08T01:22:53.672Z,139.00
2023-09-08T01:25:21.402Z,137.45
2023-09-08T01:27:50.774Z,146.75
2023-09-08T01:30:17.647Z,145.63
2023-09-08T01:32:45.093Z,126.57
2023-09-08T01:35:11.690Z,107.90
2023-09-08T01:37:40.522Z,105.65
2023-09-08T01:40:07.358Z,112.95
2023-09-08T01:42:33.761Z,120.70
2023-09-08T01:45:00.188Z,116.20
2023-09-08T01:47:26.725Z,118.85
2023-09-08T01:49:53.129Z,100.18
2023-09-08T01:52:19.550Z,101.13
2023-09-08T01:54:45.940Z,99.60
2023-09-08T01:57:12.357Z,103.93
2023-09-08T01:59:38.819Z,113.20
2023-09-08T02:02:05.286Z,122.78
2023-09-08T02:04:32.050Z,140.45
2023-09-08T02:06:58.668Z,130.70
2023-09-08T02:09:45.326Z,139.82
2023-09-08T02:12:11.746Z,135.90
2023-09-08T02:14:38.138Z,134.98
2023-09-08T02:17:04.535Z,104.55
2023-09-08T02:19:31.172Z,108.40
2023-09-08T02:21:57.620Z,121.32
2023-09-08T02:24:24.104Z,133.40
2023-09-08T02:26:50.612Z,120.15
2023-09-08T02:29:17.075Z,144.18
2023-09-08T02:31:43.480Z,133.27
2023-09-08T02:34:09.973Z,155.85
2023-09-08T02:36:36.419Z,155.40
2023-09-08T02:39:02.827Z,143.30
2023-09-08T02:41:29.306Z,124.40
2023-09-08T02:43:55.746Z,183.27
2023-09-08T02:46:22.158Z,168.07
2023-09-08T02:48:48.904Z,186.57
2023-09-08T02:51:15.353Z,154.07
2023-09-08T02:53:41.844Z,136.18
2023-09-08T02:56:08.319Z,134.87
2023-09-08T02:58:35.177Z,129.02
2023-09-08T03:01:11.783Z,127.70
2023-09-08T03:03:38.380Z,108.68
2023-09-08T03:06:04.889Z,116.05
2023-09-08T03:08:31.331Z,130.73
2023-09-08T03:10:58.098Z,150.10
2023-09-08T03:13:24.492Z,129.98
2023-09-08T03:15:51.078Z,130.10
2023-09-08T03:18:17.453Z,91.50
2023-09-08T03:20:43.833Z,84.70
2023-09-08T03:23:10.268Z,121.53
2023-09-08T03:25:36.660Z,93.03
2023-09-08T03:28:03.301Z,112.25
2023-09-08T03:30:29.812Z,93.82
2023-09-08T03:32:56.347Z,97.23
2023-09-08T03:35:22.776Z,110.53
2023-09-08T03:37:49.288Z,106.88
2023-09-08T03:40:15.818Z,111.30
2023-09-08T03:42:42.332Z,108.75
2023-09-08T03:45:09.051Z,124.70
2023-09-08T03:47:35.523Z,128.18
2023-09-08T03:50:02.149Z,123.97
2023-09-08T03:52:28.651Z,145.10
2023-09-08T03:54:55.037Z,157.85
2023-09-08T03:57:21.463Z,159.63
2023-09-08T03:59:47.934Z,144.00
2023-09-08T04:02:14.400Z,143.07
2023-09-08T04:04:40.815Z,89.55
2023-09-08T04:07:07.498Z,69.70
2023-09-08T04:09:33.939Z,77.43
2023-09-08T04:12:00.391Z,76.63
2023-09-08T04:14:26.893Z,96.22
2023-09-08T04:16:53.667Z,99.97
2023-09-08T04:19:20.068Z,96.80
2023-09-08T04:21:46.531Z,87.60
2023-09-08T04:24:12.996Z,58.70
2023-09-08T04:26:39.581Z,73.20
2023-09-08T04:29:06.011Z,63.08
2023-09-08T04:31:32.647Z,60.38
2023-09-08T04:33:59.098Z,72.10
2023-09-08T04:36:25.583Z,81.43
2023-09-08T04:38:52.002Z,76.68
2023-09-08T04:41:18.400Z,46.03
2023-09-08T04:43:44.890Z,47.58
2023-09-08T04:46:11.271Z,56.00
2023-09-08T04:48:40.108Z,57.65
2023-09-08T04:51:07.388Z,60.97
2023-09-08T04:53:33.808Z,59.40
2023-09-08T04:56:00.207Z,58.58
2023-09-08T04:58:26.647Z,46.30
2023-09-08T05:00:53.086Z,23.63
2023-09-08T05:03:19.848Z,28.63
2023-09-08T05:05:47.313Z,28.60
2023-09-08T05:08:13.833Z,30.30
2023-09-08T05:10:40.216Z,46.63
2023-09-08T05:13:11.511Z,10.80
2023-09-08T05:15:46.838Z,10.30
2023-09-08T05:18:13.344Z,21.13
2023-09-08T05:20:39.776Z,17.50
2023-09-08T05:23:06.176Z,31.57
2023-09-08T05:25:32.701Z,43.40
2023-09-08T05:27:59.475Z,36.03
2023-09-08T05:30:25.888Z,9.70
2023-09-08T05:32:52.448Z,10.73
2023-09-08T05:35:18.911Z,11.87
2023-09-08T05:37:45.305Z,24.45
2023-09-08T05:40:11.906Z,26.58
2023-09-08T05:42:38.308Z,47.83
2023-09-08T05:45:04.926Z,54.45
2023-09-08T05:47:31.566Z,42.07
2023-09-08T05:49:58.019Z,40.75
2023-09-08T05:52:24.475Z,10.52
2023-09-08T05:54:50.992Z,4.32
2023-09-08T05:57:17.393Z,34.35
2023-09-08T05:59:43.821Z,57.00
2023-09-08T06:02:10.320Z,50.00
2023-09-08T06:04:36.852Z,54.38
2023-09-08T06:07:03.463Z,59.97
2023-09-08T06:09:29.994Z,62.47
2023-09-08T06:11:56.412Z,53.00
2023-09-08T06:14:22.813Z,67.00
2023-09-08T06:16:49.381Z,59.55
2023-09-08T06:19:15.825Z,75.68
2023-09-08T06:21:42.215Z,79.28
2023-09-08T06:24:08.837Z,91.97
2023-09-08T06:26:35.532Z,106.05
2023-09-08T06:29:01.912Z,107.82
2023-09-08T06:31:28.448Z,90.30
2023-09-08T06:33:54.930Z,82.57
2023-09-08T06:36:21.479Z,97.13
2023-09-08T06:38:48.021Z,83.65
2023-09-08T06:41:14.433Z,64.03
2023-09-08T06:43:40.879Z,63.92
2023-09-08T06:46:07.408Z,75.68
2023-09-08T06:48:34.168Z,49.33
2023-09-08T06:51:00.824Z,44.08
2023-09-08T06:53:27.369Z,37.63
2023-09-08T06:55:53.844Z,34.33
2023-09-08T06:58:20.303Z,34.50
2023-09-08T07:00:46.913Z,40.53
2023-09-08T07:03:13.601Z,26.20
2023-09-08T07:05:40.613Z,36.53
2023-09-08T07:08:07.125Z,34.45
2023-09-08T07:10:33.701Z,9.57
2023-09-08T07:13:00.078Z,6.27
2023-09-08T07:15:26.525Z,4.80
2023-09-08T07:17:52.924Z,4.03
2023-09-08T07:20:19.658Z,8.90
2023-09-08T07:22:46.205Z,13.77
2023-09-08T07:25:12.646Z,25.43
2023-09-08T07:27:39.387Z,35.58
2023-09-08T07:30:06.427Z,28.67
2023-09-08T07:32:32.915Z,19.42
2023-09-08T07:34:59.361Z,21.10
2023-09-08T07:37:25.876Z,40.20
2023-09-08T07:39:52.628Z,34.90
2023-09-08T07:42:19.018Z,63.22
2023-09-08T07:44:45.981Z,47.50
2023-09-08T07:47:12.411Z,59.88
2023-09-08T07:49:38.878Z,70.40
2023-09-08T07:52:05.553Z,72.20
2023-09-08T07:54:31.936Z,69.95
2023-09-08T07:56:58.316Z,91.85
2023-09-08T07:59:24.792Z,71.80
2023-09-08T08:01:51.261Z,42.30
2023-09-08T08:04:17.756Z,46.25
2023-09-08T08:06:44.292Z,31.67
2023-09-08T08:09:10.755Z,27.33
2023-09-08T08:11:37.342Z,13.25
2023-09-08T08:14:03.795Z,25.50
2023-09-08T08:16:30.217Z,17.10
2023-09-08T08:18:56.761Z,9.40
2023-09-08T08:21:23.480Z,14.77
2023-09-08T08:23:50.477Z,87.63
2023-09-08T08:26:17.163Z,33.13
2023-09-08T08:28:43.590Z,47.03
2023-09-08T08:31:10.041Z,51.70
2023-09-08T08:33:36.499Z,40.63
2023-09-08T08:36:02.979Z,80.55
2023-09-08T08:38:29.426Z,56.70
2023-09-08T08:40:55.824Z,22.88
2023-09-08T08:43:22.720Z,10.35
2023-09-08T08:45:49.350Z,41.75
2023-09-08T08:48:16.555Z,46.17
2023-09-08T08:50:43.780Z,6.80
2023-09-08T08:53:10.328Z,23.13
2023-09-08T08:55:36.877Z,30.00
2023-09-08T08:58:06.454Z,6.13
2023-09-08T09:00:35.462Z,3.75
2023-09-08T09:03:13.988Z,5.93
2023-09-08T09:05:44.654Z,4.35
2023-09-08T09:08:14.134Z,6.45
2023-09-08T09:10:40.534Z,5.13
2023-09-08T09:13:06.986Z,7.03
2023-09-08T09:15:33.390Z,98.93
2023-09-08T09:18:06.696Z,128.15
2023-09-08T09:20:33.384Z,49.33
2023-09-08T09:22:59.893Z,39.90
2023-09-08T09:25:28.289Z,46.83
2023-09-08T09:28:02.671Z,57.60
2023-09-08T09:30:46.568Z,11.70
2023-09-08T09:33:13.104Z,8.23
2023-09-08T09:35:43.801Z,40.05
2023-09-08T09:38:10.356Z,60.03
2023-09-08T09:40:36.884Z,69.93
2023-09-08T09:43:03.574Z,69.65
2023-09-08T09:45:29.984Z,83.07
2023-09-08T09:47:56.938Z,48.17
2023-09-08T09:50:30.701Z,32.97
2023-09-08T09:53:00.862Z,48.30
2023-09-08T09:55:27.740Z,65.68
2023-09-08T09:57:58.276Z,60.72
2023-09-08T10:00:26.096Z,56.83
2023-09-08T10:02:52.845Z,67.20
2023-09-08T10:05:19.797Z,65.37
2023-09-08T10:07:47.357Z,62.50
2023-09-08T10:10:13.797Z,59.78
2023-09-08T10:12:41.541Z,52.72
2023-09-08T10:15:10.174Z,82.80
2023-09-08T10:17:37.284Z,103.03
2023-09-08T10:20:03.881Z,72.38
2023-09-08T10:22:31.572Z,85.60
2023-09-08T10:24:58.477Z,108.38
2023-09-08T10:27:25.380Z,81.60
2023-09-08T10:29:52.923Z,79.70
2023-09-08T10:32:19.905Z,102.95
2023-09-08T10:34:47.093Z,110.28
2023-09-08T10:37:20.875Z,108.82
2023-09-08T10:39:47.386Z,298.25
2023-09-08T10:42:19.810Z,81.83
2023-09-08T10:44:49.163Z,110.68
2023-09-08T10:47:32.098Z,113.85
2023-09-08T10:50:00.565Z,106.78
2023-09-08T10:52:27.391Z,70.97
2023-09-08T10:54:54.420Z,72.27
2023-09-08T10:57:25.114Z,88.50
2023-09-08T10:59:54.323Z,84.90
2023-09-08T11:02:33.155Z,46.22
2023-09-08T11:04:59.622Z,40.13
2023-09-08T11:07:26.165Z,55.90
2023-09-08T11:09:52.583Z,88.60
2023-09-08T11:12:18.987Z,57.85
2023-09-08T11:14:45.389Z,104.95
2023-09-08T11:17:11.978Z,57.90
2023-09-08T11:19:46.130Z,33.57
2023-09-08T11:22:12.572Z,88.95
2023-09-08T11:24:39.659Z,89.45
2023-09-08T11:27:06.361Z,43.90
2023-09-08T11:29:32.832Z,36.38
2023-09-08T11:31:59.882Z,88.17
2023-09-08T11:34:26.289Z,12.45
2023-09-08T11:36:52.774Z,5.13
2023-09-08T11:39:20.164Z,4.53
2023-09-08T11:41:46.562Z,112.53
2023-09-08T11:44:16.330Z,124.37
2023-09-08T11:46:42.875Z,184.90
2023-09-08T11:49:09.323Z,55.55
2023-09-08T11:51:35.778Z,2.42
2023-09-08T11:54:02.483Z,94.80
2023-09-08T11:56:29.027Z,99.30
2023-09-08T11:58:55.739Z,102.03
2023-09-08T12:01:23.220Z,116.60
2023-09-08T12:03:53.306Z,88.95
2023-09-08T12:06:20.022Z,96.00
2023-09-08T12:08:46.440Z,65.70
2023-09-08T12:11:12.888Z,94.38
2023-09-08T12:13:39.302Z,99.07
2023-09-08T12:16:18.551Z,97.78
2023-09-08T12:18:45.009Z,79.97
2023-09-08T12:21:11.403Z,86.27
2023-09-08T12:23:58.124Z,55.85
2023-09-08T12:26:27.642Z,116.70
2023-09-08T12:28:54.381Z,70.35
2023-09-08T12:31:21.393Z,122.38
2023-09-08T12:33:47.883Z,53.17
2023-09-08T12:36:17.966Z,28.55
2023-09-08T12:38:53.741Z,33.40
2023-09-08T12:41:20.754Z,70.32
2023-09-08T12:43:47.584Z,130.38
2023-09-08T12:46:14.116Z,40.37
2023-09-08T12:48:40.590Z,29.17
2023-09-08T12:51:06.984Z,23.25
2023-09-08T12:53:36.387Z,13.35
2023-09-08T12:56:02.868Z,10.75
2023-09-08T12:58:29.291Z,7.00
2023-09-08T13:00:55.805Z,6.32
2023-09-08T13:03:22.223Z,7.05
2023-09-08T13:05:48.671Z,44.65
2023-09-08T13:08:15.418Z,64.47
2023-09-08T13:10:41.944Z,53.80
2023-09-08T13:13:08.427Z,16.00
2023-09-08T13:15:35.411Z,25.77
2023-09-08T13:18:01.898Z,31.27
2023-09-08T13:20:28.423Z,9.50
2023-09-08T13:22:54.921Z,56.93
2023-09-08T13:25:21.465Z,10.13
2023-09-08T13:27:48.300Z,72.22
2023-09-08T13:30:15.624Z,75.13
2023-09-08T13:32:42.471Z,103.43
2023-09-08T13:35:09.082Z,12.73
2023-09-08T13:37:35.886Z,46.40
2023-09-08T13:40:02.881Z,43.15
2023-09-08T13:42:29.455Z,25.08
2023-09-08T13:44:56.575Z,62.25
2023-09-08T13:47:23.380Z,31.63
2023-09-08T13:49:50.966Z,3.50
2023-09-08T13:52:19.355Z,1.73
2023-09-08T13:54:46.458Z,1.90
2023-09-08T13:57:14.386Z,1.55
2023-09-08T13:59:43.265Z,1.90
2023-09-08T14:02:32.566Z,2.03
2023-09-08T14:05:02.091Z,2.40
2023-09-08T14:07:36.585Z,2.15
2023-09-08T14:10:10.416Z,2.33
2023-09-08T14:12:46.324Z,2.20
2023-09-08T14:15:12.828Z,2.25
2023-09-08T14:17:39.266Z,2.30
2023-09-08T14:20:05.941Z,3.92
2023-09-08T14:22:32.472Z,45.40
2023-09-08T14:24:58.863Z,85.73
2023-09-08T14:27:25.457Z,76.72
2023-09-08T14:29:51.903Z,58.17
2023-09-08T14:32:18.315Z,82.07
2023-09-08T14:34:44.761Z,19.25
2023-09-08T14:37:11.718Z,4.43
2023-09-08T14:39:38.306Z,4.38
